sensor_id;sensor_type;location;lat;lon;timestamp;pressure;altitude;pressure_sealevel;temperature;humidity
10510;BME280;5303;53.266;10.410;2023-12-28T00:01:11;100467.88;;;6.72;100.00
10510;BME280;5303;53.266;10.410;2023-12-28T00:03:37;100458.31;;;6.75;100.00
10510;BME280;5303;53.266;10.410;2023-12-28T00:06:02;100465.22;;;6.69;100.00
10510;BME280;5303;53.266;10.410;2023-12-28T00:08:27;100447.75;;;6.69;100.00
10510;BME280;5303;53.266;10.410;2023-12-28T00:10:53;100442.63;;;6.86;100.00
10510;BME280;5303;53.266;10.410;2023-12-28T00:13:18;100455.75;;;6.92;100.00
10510;BME280;5303;53.266;10.410;2023-12-28T00:15:43;100444.41;;;6.91;100.00
10510;BME280;5303;53.266;10.410;2023-12-28T00:18:09;100440.09;;;7.01;100.00
10510;BME280;5303;53.266;10.410;2023-12-28T00:20:34;100445.31;;;7.00;100.00
10510;BME280;5303;53.266;10.410;2023-12-28T00:22:59;100442.66;;;6.93;100.00
10510;BME280;5303;53.266;10.410;2023-12-28T00:25:25;100439.19;;;6.98;100.00
10510;BME280;5303;53.266;10.410;2023-12-28T00:27:50;100430.47;;;7.02;100.00
10510;BME280;5303;53.266;10.410;2023-12-28T00:30:16;100420.91;;;7.07;100.00
10510;BME280;5303;53.266;10.410;2023-12-28T00:32:43;100447.97;;;7.03;100.00
10510;BME280;5303;53.266;10.410;2023-12-28T00:35:09;100454.94;;;7.01;100.00
10510;BME280;5303;53.266;10.410;2023-12-28T00:37:35;100467.19;;;7.02;100.00
10510;BME280;5303;53.266;10.410;2023-12-28T00:40:00;100461.06;;;6.97;100.00
10510;BME280;5303;53.266;10.410;2023-12-28T00:42:25;100461.06;;;7.01;100.00
10510;BME280;5303;53.266;10.410;2023-12-28T00:44:50;100468.94;;;7.00;100.00
10510;BME280;5303;53.266;10.410;2023-12-28T00:47:17;100470.69;;;6.98;100.00
10510;BME280;5303;53.266;10.410;2023-12-28T00:49:42;100469.84;;;7.08;100.00
10510;BME280;5303;53.266;10.410;2023-12-28T00:52:08;100465.44;;;7.04;100.00
10510;BME280;5303;53.266;10.410;2023-12-28T00:54:35;100466.41;;;7.21;100.00
10510;BME280;5303;53.266;10.410;2023-12-28T00:57:01;100463.75;;;7.15;100.00
10510;BME280;5303;53.266;10.410;2023-12-28T00:59:27;100462.00;;;7.11;100.00
10510;BME280;5303;53.266;10.410;2023-12-28T01:01:52;100483.91;;;7.16;100.00
10510;BME280;5303;53.266;10.410;2023-12-28T01:04:17;100486.53;;;7.20;100.00
10510;BME280;5303;53.266;10.410;2023-12-28T01:06:43;100492.59;;;7.15;100.00
10510;BME280;5303;53.266;10.410;2023-12-28T01:09:08;100498.75;;;7.17;100.00
10510;BME280;5303;53.266;10.410;2023-12-28T01:11:34;100505.72;;;7.12;100.00
10510;BME280;5303;53.266;10.410;2023-12-28T01:13:59;100503.09;;;7.10;100.00
10510;BME280;5303;53.266;10.410;2023-12-28T01:16:25;100495.22;;;7.06;100.00
10510;BME280;5303;53.266;10.410;2023-12-28T01:18:50;100512.66;;;7.01;100.00
10510;BME280;5303;53.266;10.410;2023-12-28T01:21:15;100509.09;;;6.92;100.00
10510;BME280;5303;53.266;10.410;2023-12-28T01:23:41;100521.38;;;7.00;100.00
10510;BME280;5303;53.266;10.410;2023-12-28T01:26:12;100529.25;;;6.97;100.00
10510;BME280;5303;53.266;10.410;2023-12-28T01:28:37;100522.19;;;6.88;100.00
10510;BME280;5303;53.266;10.410;2023-12-28T01:31:03;100533.47;;;6.82;100.00
10510;BME280;5303;53.266;10.410;2023-12-28T01:33:29;100532.66;;;6.85;100.00
10510;BME280;5303;53.266;10.410;2023-12-28T01:35:54;100530.03;;;6.88;100.00
10510;BME280;5303;53.266;10.410;2023-12-28T01:38:19;100537.13;;;7.03;100.00
10510;BME280;5303;53.266;10.410;2023-12-28T01:40:45;100532.69;;;6.94;100.00
10510;BME280;5303;53.266;10.410;2023-12-28T01:43:11;100526.53;;;6.86;100.00
10510;BME280;5303;53.266;10.410;2023-12-28T01:45:37;100523.00;;;6.82;100.00
10510;BME280;5303;53.266;10.410;2023-12-28T01:48:03;100515.25;;;6.98;100.00
10510;BME280;5303;53.266;10.410;2023-12-28T01:50:30;100528.38;;;7.01;100.00
10510;BME280;5303;53.266;10.410;2023-12-28T01:52:58;100529.25;;;7.04;100.00
10510;BME280;5303;53.266;10.410;2023-12-28T01:55:25;100537.91;;;6.88;100.00
10510;BME280;5303;53.266;10.410;2023-12-28T01:57:51;100540.53;;;6.86;100.00
10510;BME280;5303;53.266;10.410;2023-12-28T02:00:16;100550.06;;;6.78;100.00
10510;BME280;5303;53.266;10.410;2023-12-28T02:02:43;100556.13;;;6.71;100.00
10510;BME280;5303;53.266;10.410;2023-12-28T02:05:11;100565.72;;;6.71;100.00
10510;BME280;5303;53.266;10.410;2023-12-28T02:07:40;100571.03;;;6.77;100.00
10510;BME280;5303;53.266;10.410;2023-12-28T02:10:06;100572.78;;;6.79;100.00
10510;BME280;5303;53.266;10.410;2023-12-28T02:12:31;100564.91;;;6.76;100.00
10510;BME280;5303;53.266;10.410;2023-12-28T02:14:57;100571.03;;;6.77;100.00
10510;BME280;5303;53.266;10.410;2023-12-28T02:17:30;100573.75;;;6.87;100.00
10510;BME280;5303;53.266;10.410;2023-12-28T02:19:59;100581.63;;;6.89;100.00
10510;BME280;5303;53.266;10.410;2023-12-28T02:22:26;100592.19;;;6.98;100.00
10510;BME280;5303;53.266;10.410;2023-12-28T02:25:11;100580.84;;;7.04;100.00
10510;BME280;5303;53.266;10.410;2023-12-28T02:27:45;100587.81;;;6.96;100.00
10510;BME280;5303;53.266;10.410;2023-12-28T02:30:16;100575.50;;;6.88;100.00
10510;BME280;5303;53.266;10.410;2023-12-28T02:35:32;100596.56;;;7.04;100.00
10510;BME280;5303;53.266;10.410;2023-12-28T02:38:02;100598.31;;;7.02;100.00
10510;BME280;5303;53.266;10.410;2023-12-28T02:40:38;100587.97;;;7.18;100.00
10510;BME280;5303;53.266;10.410;2023-12-28T02:43:05;100587.91;;;7.14;100.00
10510;BME280;5303;53.266;10.410;2023-12-28T02:45:31;100571.31;;;7.15;100.00
10510;BME280;5303;53.266;10.410;2023-12-28T02:47:56;100584.53;;;7.27;100.00
10510;BME280;5303;53.266;10.410;2023-12-28T02:50:22;100589.78;;;7.26;100.00
10510;BME280;5303;53.266;10.410;2023-12-28T02:52:47;100581.91;;;7.26;100.00
10510;BME280;5303;53.266;10.410;2023-12-28T02:55:12;100572.31;;;7.32;100.00
10510;BME280;5303;53.266;10.410;2023-12-28T02:57:38;100571.50;;;7.42;100.00
10510;BME280;5303;53.266;10.410;2023-12-28T03:00:07;100562.72;;;7.36;100.00
10510;BME280;5303;53.266;10.410;2023-12-28T03:02:35;100560.09;;;7.37;100.00
10510;BME280;5303;53.266;10.410;2023-12-28T03:05:00;100553.94;;;7.32;100.00
10510;BME280;5303;53.266;10.410;2023-12-28T03:07:25;100547.81;;;7.30;100.00
10510;BME280;5303;53.266;10.410;2023-12-28T03:09:51;100554.81;;;7.31;100.00
10510;BME280;5303;53.266;10.410;2023-12-28T03:12:16;100539.06;;;7.31;100.00
10510;BME280;5303;53.266;10.410;2023-12-28T03:14:41;100543.44;;;7.34;100.00
10510;BME280;5303;53.266;10.410;2023-12-28T03:17:07;100541.69;;;7.30;100.00
10510;BME280;5303;53.266;10.410;2023-12-28T03:19:33;100531.16;;;7.25;100.00
10510;BME280;5303;53.266;10.410;2023-12-28T03:21:58;100549.56;;;7.31;100.00
10510;BME280;5303;53.266;10.410;2023-12-28T03:24:23;100549.59;;;7.36;100.00
10510;BME280;5303;53.266;10.410;2023-12-28T03:26:48;100551.31;;;7.32;100.00
10510;BME280;5303;53.266;10.410;2023-12-28T03:29:14;100556.56;;;7.35;100.00
10510;BME280;5303;53.266;10.410;2023-12-28T03:31:39;100547.88;;;7.41;100.00
10510;BME280;5303;53.266;10.410;2023-12-28T03:34:06;100546.94;;;7.34;100.00
10510;BME280;5303;53.266;10.410;2023-12-28T03:36:31;100553.97;;;7.37;100.00
10510;BME280;5303;53.266;10.410;2023-12-28T03:38:56;100559.22;;;7.40;100.00
10510;BME280;5303;53.266;10.410;2023-12-28T03:41:21;100566.22;;;7.36;100.00
10510;BME280;5303;53.266;10.410;2023-12-28T03:43:47;100569.69;;;7.35;100.00
10510;BME280;5303;53.266;10.410;2023-12-28T03:46:13;100566.28;;;7.48;100.00
10510;BME280;5303;53.266;10.410;2023-12-28T03:48:39;100567.13;;;7.44;100.00
10510;BME280;5303;53.266;10.410;2023-12-28T03:51:04;100563.69;;;7.55;100.00
10510;BME280;5303;53.266;10.410;2023-12-28T03:53:30;100566.28;;;7.47;100.00
10510;BME280;5303;53.266;10.410;2023-12-28T03:55:58;100567.09;;;7.38;100.00
10510;BME280;5303;53.266;10.410;2023-12-28T03:58:24;100567.13;;;7.44;100.00
10510;BME280;5303;53.266;10.410;2023-12-28T04:00:49;100561.88;;;7.44;100.00
10510;BME280;5303;53.266;10.410;2023-12-28T04:03:14;100572.34;;;7.38;100.00
10510;BME280;5303;53.266;10.410;2023-12-28T04:05:40;100568.88;;;7.45;100.00
10510;BME280;5303;53.266;10.410;2023-12-28T04:08:05;100574.09;;;7.36;100.00
10510;BME280;5303;53.266;10.410;2023-12-28T04:10:32;100575.81;;;7.34;100.00
10510;BME280;5303;53.266;10.410;2023-12-28T04:12:58;100570.56;;;7.34;100.00
10510;BME280;5303;53.266;10.410;2023-12-28T04:15:25;100571.47;;;7.41;100.00
10510;BME280;5303;53.266;10.410;2023-12-28T04:17:50;100562.72;;;7.40;100.00
10510;BME280;5303;53.266;10.410;2023-12-28T04:20:15;100561.81;;;7.32;100.00
10510;BME280;5303;53.266;10.410;2023-12-28T04:22:41;100556.63;;;7.44;100.00
10510;BME280;5303;53.266;10.410;2023-12-28T04:25:08;100556.59;;;7.38;100.00
10510;BME280;5303;53.266;10.410;2023-12-28T04:27:33;100562.75;;;7.45;100.00
10510;BME280;5303;53.266;10.410;2023-12-28T04:29:59;100557.47;;;7.36;100.00
10510;BME280;5303;53.266;10.410;2023-12-28T04:32:24;100562.69;;;7.33;100.00
10510;BME280;5303;53.266;10.410;2023-12-28T04:34:49;100561.81;;;7.32;100.00
10510;BME280;5303;53.266;10.410;2023-12-28T04:37:15;100553.06;;;7.32;100.00
10510;BME280;5303;53.266;10.410;2023-12-28T04:39:40;100564.41;;;7.29;100.00
10510;BME280;5303;53.266;10.410;2023-12-28T04:42:05;100557.44;;;7.31;100.00
10510;BME280;5303;53.266;10.410;2023-12-28T04:44:30;100560.00;;;7.25;100.00
10510;BME280;5303;53.266;10.410;2023-12-28T04:46:56;100568.81;;;7.35;100.00
10510;BME280;5303;53.266;10.410;2023-12-28T04:49:21;100559.25;;;7.41;100.00
10510;BME280;5303;53.266;10.410;2023-12-28T04:51:46;100559.28;;;7.49;100.00
10510;BME280;5303;53.266;10.410;2023-12-28T04:54:11;100557.47;;;7.39;100.00
10510;BME280;5303;53.266;10.410;2023-12-28T04:56:37;100559.22;;;7.37;100.00
10510;BME280;5303;53.266;10.410;2023-12-28T04:59:02;100557.47;;;7.37;100.00
10510;BME280;5303;53.266;10.410;2023-12-28T05:01:27;100560.09;;;7.36;100.00
10510;BME280;5303;53.266;10.410;2023-12-28T05:03:56;100553.06;;;7.33;100.00
10510;BME280;5303;53.266;10.410;2023-12-28T05:06:21;100546.06;;;7.29;100.00
10510;BME280;5303;53.266;10.410;2023-12-28T05:08:47;100553.03;;;7.27;100.00
10510;BME280;5303;53.266;10.410;2023-12-28T05:11:12;100560.91;;;7.29;100.00
10510;BME280;5303;53.266;10.410;2023-12-28T05:13:38;100549.56;;;7.28;100.00
10510;BME280;5303;53.266;10.410;2023-12-28T05:16:03;100565.31;;;7.31;100.00
10510;BME280;5303;53.266;10.410;2023-12-28T05:18:28;100567.88;;;7.25;100.00
10510;BME280;5303;53.266;10.410;2023-12-28T05:20:54;100567.03;;;7.29;100.00
10510;BME280;5303;53.266;10.410;2023-12-28T05:23:20;100558.34;;;7.39;100.00
10510;BME280;5303;53.266;10.410;2023-12-28T05:25:45;100568.00;;;7.43;100.00
10510;BME280;5303;53.266;10.410;2023-12-28T05:28:11;100570.59;;;7.37;100.00
10510;BME280;5303;53.266;10.410;2023-12-28T05:30:36;100570.59;;;7.36;100.00
10510;BME280;5303;53.266;10.410;2023-12-28T05:33:02;100560.94;;;7.30;100.00
10510;BME280;5303;53.266;10.410;2023-12-28T05:35:28;100572.34;;;7.38;100.00
10510;BME280;5303;53.266;10.410;2023-12-28T05:37:53;100560.09;;;7.37;100.00
10510;BME280;5303;53.266;10.410;2023-12-28T05:40:19;100564.50;;;7.44;100.00
10510;BME280;5303;53.266;10.410;2023-12-28T05:42:44;100549.66;;;7.46;100.00
10510;BME280;5303;53.266;10.410;2023-12-28T05:45:10;100554.88;;;7.45;100.00
10510;BME280;5303;53.266;10.410;2023-12-28T05:47:35;100568.88;;;7.45;100.00
10510;BME280;5303;53.266;10.410;2023-12-28T05:50:00;100568.00;;;7.42;100.00
10510;BME280;5303;53.266;10.410;2023-12-28T05:52:28;100554.84;;;7.37;100.00
10510;BME280;5303;53.266;10.410;2023-12-28T05:54:54;100562.75;;;7.42;100.00
10510;BME280;5303;53.266;10.410;2023-12-28T05:57:21;100553.97;;;7.37;100.00
10510;BME280;5303;53.266;10.410;2023-12-28T05:59:47;100560.22;;;7.62;100.00
10510;BME280;5303;53.266;10.410;2023-12-28T06:02:12;100565.47;;;7.59;100.00
10510;BME280;5303;53.266;10.410;2023-12-28T06:04:37;100568.97;;;7.65;100.00
10510;BME280;5303;53.266;10.410;2023-12-28T06:07:03;100574.28;;;7.70;100.00
10510;BME280;5303;53.266;10.410;2023-12-28T06:09:29;100567.25;;;7.69;100.00
10510;BME280;5303;53.266;10.410;2023-12-28T06:11:54;100564.69;;;7.76;100.00
10510;BME280;5303;53.266;10.410;2023-12-28T06:14:19;100562.09;;;7.90;100.00
10510;BME280;5303;53.266;10.410;2023-12-28T06:16:45;100553.31;;;7.85;100.00
10510;BME280;5303;53.266;10.410;2023-12-28T06:19:10;100543.72;;;7.87;100.00
10510;BME280;5303;53.266;10.410;2023-12-28T06:21:37;100555.06;;;7.80;100.00
10510;BME280;5303;53.266;10.410;2023-12-28T06:24:03;100562.94;;;7.82;100.00
10510;BME280;5303;53.266;10.410;2023-12-28T06:26:28;100565.56;;;7.80;100.00
10510;BME280;5303;53.266;10.410;2023-12-28T06:28:53;100562.06;;;7.81;100.00
10510;BME280;5303;53.266;10.410;2023-12-28T06:31:19;100570.81;;;7.83;100.00
10510;BME280;5303;53.266;10.410;2023-12-28T06:33:44;100555.97;;;7.91;100.00
10510;BME280;5303;53.266;10.410;2023-12-28T06:36:09;100572.56;;;7.84;100.00
10510;BME280;5303;53.266;10.410;2023-12-28T06:38:36;100562.06;;;7.86;100.00
10510;BME280;5303;53.266;10.410;2023-12-28T06:41:01;100560.31;;;7.77;100.00
10510;BME280;5303;53.266;10.410;2023-12-28T06:43:26;100560.31;;;7.77;100.00
10510;BME280;5303;53.266;10.410;2023-12-28T06:45:52;100576.91;;;7.74;100.00
10510;BME280;5303;53.266;10.410;2023-12-28T06:48:17;100564.69;;;7.86;100.00
10510;BME280;5303;53.266;10.410;2023-12-28T06:50:43;100560.34;;;7.95;100.00
10510;BME280;5303;53.266;10.410;2023-12-28T06:53:08;100565.59;;;7.95;100.00
10510;BME280;5303;53.266;10.410;2023-12-28T06:55:33;100558.56;;;7.85;100.00
10510;BME280;5303;53.266;10.410;2023-12-28T06:57:59;100570.03;;;7.99;100.00
10510;BME280;5303;53.266;10.410;2023-12-28T07:00:24;100569.97;;;7.90;100.00
10510;BME280;5303;53.266;10.410;2023-12-28T07:02:50;100573.50;;;7.95;100.00
10510;BME280;5303;53.266;10.410;2023-12-28T07:05:15;100571.69;;;7.84;100.00
10510;BME280;5303;53.266;10.410;2023-12-28T07:07:40;100601.50;;;7.92;100.00
10510;BME280;5303;53.266;10.410;2023-12-28T07:10:06;100592.75;;;7.90;100.00
10510;BME280;5303;53.266;10.410;2023-12-28T07:12:31;100581.34;;;7.89;100.00
10510;BME280;5303;53.266;10.410;2023-12-28T07:14:57;100596.25;;;7.87;100.00
10510;BME280;5303;53.266;10.410;2023-12-28T07:17:22;100595.41;;;8.03;100.00
10510;BME280;5303;53.266;10.410;2023-12-28T07:19:47;100586.69;;;8.14;100.00
10510;BME280;5303;53.266;10.410;2023-12-28T07:22:12;100591.06;;;8.13;100.00
10510;BME280;5303;53.266;10.410;2023-12-28T07:24:38;100591.97;;;8.26;100.00
10510;BME280;5303;53.266;10.410;2023-12-28T07:27:03;100580.66;;;8.37;100.00
10510;BME280;5303;53.266;10.410;2023-12-28T07:29:29;100585.06;;;8.40;100.00
10510;BME280;5303;53.266;10.410;2023-12-28T07:31:54;100568.34;;;8.30;100.00
10510;BME280;5303;53.266;10.410;2023-12-28T07:34:19;100571.91;;;8.42;100.00
10510;BME280;5303;53.266;10.410;2023-12-28T07:36:45;100591.13;;;8.33;100.00
10510;BME280;5303;53.266;10.410;2023-12-28T07:39:10;100583.28;;;8.36;100.00
10510;BME280;5303;53.266;10.410;2023-12-28T07:41:36;100572.75;;;8.36;100.00
10510;BME280;5303;53.266;10.410;2023-12-28T07:44:01;100572.75;;;8.36;100.00
10510;BME280;5303;53.266;10.410;2023-12-28T07:46:26;100579.75;;;8.31;100.00
10510;BME280;5303;53.266;10.410;2023-12-28T07:48:52;100580.63;;;8.31;100.00
10510;BME280;5303;53.266;10.410;2023-12-28T07:51:17;100579.75;;;8.34;100.00
10510;BME280;5303;53.266;10.410;2023-12-28T07:53:42;100585.06;;;8.40;100.00
10510;BME280;5303;53.266;10.410;2023-12-28T07:56:08;100576.28;;;8.43;100.00
10510;BME280;5303;53.266;10.410;2023-12-28T07:58:33;100582.38;;;8.34;100.00
10510;BME280;5303;53.266;10.410;2023-12-28T08:00:59;100585.84;;;8.24;100.00
10510;BME280;5303;53.266;10.410;2023-12-28T08:03:25;100581.56;;;8.41;100.00
10510;BME280;5303;53.266;10.410;2023-12-28T08:05:50;100588.53;;;8.36;100.00
10510;BME280;5303;53.266;10.410;2023-12-28T08:08:15;100577.16;;;8.35;100.00
10510;BME280;5303;53.266;10.410;2023-12-28T08:10:41;100578.03;;;8.36;100.00
10510;BME280;5303;53.266;10.410;2023-12-28T08:13:06;100578.91;;;8.44;100.00
10510;BME280;5303;53.266;10.410;2023-12-28T08:15:31;100578.03;;;8.36;100.00
10510;BME280;5303;53.266;10.410;2023-12-28T08:17:56;100571.84;;;8.32;100.00
10510;BME280;5303;53.266;10.410;2023-12-28T08:20:22;100571.91;;;8.40;100.00
10510;BME280;5303;53.266;10.410;2023-12-28T08:22:47;100554.41;;;8.59;100.00
10510;BME280;5303;53.266;10.410;2023-12-28T08:25:12;100558.81;;;8.72;100.00
10510;BME280;5303;53.266;10.410;2023-12-28T08:27:38;100551.78;;;8.73;100.00
10510;BME280;5303;53.266;10.410;2023-12-28T08:30:04;100561.44;;;8.71;100.00
10510;BME280;5303;53.266;10.410;2023-12-28T08:32:30;100543.88;;;8.68;100.00
10510;BME280;5303;53.266;10.410;2023-12-28T08:34:55;100542.13;;;8.73;100.00
10510;BME280;5303;53.266;10.410;2023-12-28T08:37:20;100535.97;;;8.88;100.00
10510;BME280;5303;53.266;10.410;2023-12-28T08:39:46;100528.97;;;8.96;100.00
10510;BME280;5303;53.266;10.410;2023-12-28T08:42:11;100536.88;;;9.10;100.00
10510;BME280;5303;53.266;10.410;2023-12-28T08:44:36;100541.22;;;9.15;100.00
10510;BME280;5303;53.266;10.410;2023-12-28T08:47:02;100541.22;;;9.21;100.00
10510;BME280;5303;53.266;10.410;2023-12-28T08:49:27;100528.94;;;9.17;100.00
10510;BME280;5303;53.266;10.410;2023-12-28T08:51:52;100529.84;;;9.13;100.00
10510;BME280;5303;53.266;10.410;2023-12-28T08:54:18;100515.78;;;9.17;100.00
10510;BME280;5303;53.266;10.410;2023-12-28T08:56:43;100524.56;;;9.22;100.00
10510;BME280;5303;53.266;10.410;2023-12-28T08:59:09;100521.91;;;9.22;100.00
10510;BME280;5303;53.266;10.410;2023-12-28T09:01:34;100513.16;;;9.20;100.00
10510;BME280;5303;53.266;10.410;2023-12-28T09:03:59;100530.72;;;9.06;100.00
10510;BME280;5303;53.266;10.410;2023-12-28T09:06:26;100521.06;;;9.08;100.00
10510;BME280;5303;53.266;10.410;2023-12-28T09:08:52;100529.81;;;9.22;100.00
10510;BME280;5303;53.266;10.410;2023-12-28T09:11:18;100539.47;;;9.23;100.00
10510;BME280;5303;53.266;10.410;2023-12-28T09:13:44;100542.03;;;9.39;100.00
10510;BME280;5303;53.266;10.410;2023-12-28T09:16:11;100522.72;;;9.46;100.00
10510;BME280;5303;53.266;10.410;2023-12-28T09:18:37;100536.75;;;9.46;100.00
10510;BME280;5303;53.266;10.410;2023-12-28T09:21:04;100534.13;;;9.51;100.00
10510;BME280;5303;53.266;10.410;2023-12-28T09:23:30;100551.66;;;9.49;100.00
10510;BME280;5303;53.266;10.410;2023-12-28T09:25:57;100549.94;;;9.51;100.00
10510;BME280;5303;53.266;10.410;2023-12-28T09:28:22;100538.50;;;9.47;100.00
10510;BME280;5303;53.266;10.410;2023-12-28T09:30:48;100534.97;;;9.50;100.00
10510;BME280;5303;53.266;10.410;2023-12-28T09:33:13;100542.03;;;9.51;100.00
10510;BME280;5303;53.266;10.410;2023-12-28T09:35:38;100549.91;;;9.54;100.00
10510;BME280;5303;53.266;10.410;2023-12-28T09:38:04;100535.84;;;9.63;100.00
10510;BME280;5303;53.266;10.410;2023-12-28T09:40:29;100541.09;;;9.64;100.00
10510;BME280;5303;53.266;10.410;2023-12-28T09:45:39;100558.59;;;9.77;100.00
10510;BME280;5303;53.266;10.410;2023-12-28T09:48:05;100539.28;;;9.81;100.00
10510;BME280;5303;53.266;10.410;2023-12-28T09:50:32;100556.81;;;9.87;100.00
10510;BME280;5303;53.266;10.410;2023-12-28T09:52:57;100554.16;;;9.89;100.00
10510;BME280;5303;53.266;10.410;2023-12-28T09:55:23;100544.47;;;10.01;100.00
10510;BME280;5303;53.266;10.410;2023-12-28T09:57:51;100558.44;;;10.11;100.00
10510;BME280;5303;53.266;10.410;2023-12-28T10:00:16;100567.25;;;10.12;100.00
10510;BME280;5303;53.266;10.410;2023-12-28T10:02:44;100547.91;;;10.14;100.00
10510;BME280;5303;53.266;10.410;2023-12-28T10:05:15;100542.56;;;10.20;100.00
10510;BME280;5303;53.266;10.410;2023-12-28T10:07:44;100528.53;;;10.18;100.00
10510;BME280;5303;53.266;10.410;2023-12-28T10:10:10;100532.06;;;10.17;100.00
10510;BME280;5303;53.266;10.410;2023-12-28T10:12:37;100531.22;;;10.14;100.00
10510;BME280;5303;53.266;10.410;2023-12-28T10:15:05;100532.94;;;10.18;100.00
10510;BME280;5303;53.266;10.410;2023-12-28T10:17:34;100513.59;;;10.26;100.00
10510;BME280;5303;53.266;10.410;2023-12-28T10:20:03;100503.88;;;10.31;100.00
10510;BME280;5303;53.266;10.410;2023-12-28T10:22:33;100497.72;;;10.35;100.00
10510;BME280;5303;53.266;10.410;2023-12-28T10:24:59;100511.72;;;10.44;100.00
10510;BME280;5303;53.266;10.410;2023-12-28T10:27:27;100513.47;;;10.42;100.00
10510;BME280;5303;53.266;10.410;2023-12-28T10:29:56;100497.72;;;10.35;100.00
10510;BME280;5303;53.266;10.410;2023-12-28T10:32:24;100504.66;;;10.47;100.00
10510;BME280;5303;53.266;10.410;2023-12-28T10:34:53;100517.88;;;10.44;100.00
10510;BME280;5303;53.266;10.410;2023-12-28T10:37:21;100516.09;;;10.42;100.00
10510;BME280;5303;53.266;10.410;2023-12-28T10:39:53;100536.31;;;10.46;100.00
10510;BME280;5303;53.266;10.410;2023-12-28T10:42:28;100531.91;;;10.42;100.00
10510;BME280;5303;53.266;10.410;2023-12-28T10:45:07;100534.53;;;10.48;100.00
10510;BME280;5303;53.266;10.410;2023-12-28T10:47:42;100528.41;;;10.44;100.00
10510;BME280;5303;53.266;10.410;2023-12-28T10:50:10;100538.09;;;10.42;100.00
10510;BME280;5303;53.266;10.410;2023-12-28T10:52:36;100544.28;;;10.36;100.00
10510;BME280;5303;53.266;10.410;2023-12-28T10:57:43;100540.75;;;10.39;100.00
10510;BME280;5303;53.266;10.410;2023-12-28T11:00:21;100529.38;;;10.29;100.00
10510;BME280;5303;53.266;10.410;2023-12-28T11:02:52;100545.19;;;10.32;100.00
10510;BME280;5303;53.266;10.410;2023-12-28T11:05:19;100533.75;;;10.33;100.00
10510;BME280;5303;53.266;10.410;2023-12-28T11:07:47;100535.50;;;10.36;100.00
10510;BME280;5303;53.266;10.410;2023-12-28T11:10:13;100527.63;;;10.21;100.00
10510;BME280;5303;53.266;10.410;2023-12-28T11:12:39;100543.47;;;10.27;100.00
10510;BME280;5303;53.266;10.410;2023-12-28T11:15:05;100543.44;;;10.30;100.00
10510;BME280;5303;53.266;10.410;2023-12-28T11:17:31;100541.72;;;10.26;100.00
10510;BME280;5303;53.266;10.410;2023-12-28T11:19:58;100536.44;;;10.18;100.00
10510;BME280;5303;53.266;10.410;2023-12-28T11:22:25;100537.31;;;10.19;100.00
10510;BME280;5303;53.266;10.410;2023-12-28T11:24:53;100540.81;;;10.19;100.00
10510;BME280;5303;53.266;10.410;2023-12-28T11:27:19;100528.56;;;10.15;100.00
10510;BME280;5303;53.266;10.410;2023-12-28T11:29:44;100533.78;;;10.21;100.00
10510;BME280;5303;53.266;10.410;2023-12-28T11:32:13;100531.19;;;10.17;100.00
10510;BME280;5303;53.266;10.410;2023-12-28T11:34:38;100528.56;;;10.15;100.00
10510;BME280;5303;53.266;10.410;2023-12-28T11:37:06;100537.34;;;10.23;100.00
10510;BME280;5303;53.266;10.410;2023-12-28T11:39:34;100526.75;;;10.26;100.00
10510;BME280;5303;53.266;10.410;2023-12-28T11:42:05;100524.97;;;10.31;100.00
10510;BME280;5303;53.266;10.410;2023-12-28T11:44:41;100532.91;;;10.27;100.00
10510;BME280;5303;53.266;10.410;2023-12-28T11:47:20;100523.22;;;10.30;100.00
10510;BME280;5303;53.266;10.410;2023-12-28T11:49:46;100506.53;;;10.33;100.00
10510;BME280;5303;53.266;10.410;2023-12-28T11:54:51;100515.25;;;10.38;100.00
10510;BME280;5303;53.266;10.410;2023-12-28T11:57:17;100521.38;;;10.45;100.00
10510;BME280;5303;53.266;10.410;2023-12-28T11:59:42;100516.13;;;10.40;100.00
10510;BME280;5303;53.266;10.410;2023-12-28T12:02:09;100520.44;;;10.49;100.00
10510;BME280;5303;53.266;10.410;2023-12-28T12:04:34;100523.13;;;10.46;100.00
10510;BME280;5303;53.266;10.410;2023-12-28T12:07:04;100514.22;;;10.59;100.00
10510;BME280;5303;53.266;10.410;2023-12-28T12:09:29;100520.34;;;10.61;100.00
10510;BME280;5303;53.266;10.410;2023-12-28T12:12:00;100516.91;;;10.51;100.00
10510;BME280;5303;53.266;10.410;2023-12-28T12:14:25;100521.38;;;10.40;100.00
10510;BME280;5303;53.266;10.410;2023-12-28T12:16:50;100525.78;;;10.39;100.00
10510;BME280;5303;53.266;10.410;2023-12-28T12:19:17;100526.59;;;10.51;100.00
10510;BME280;5303;53.266;10.410;2023-12-28T12:21:43;100505.56;;;10.45;100.00
10510;BME280;5303;53.266;10.410;2023-12-28T12:24:09;100509.88;;;10.52;100.00
10510;BME280;5303;53.266;10.410;2023-12-28T12:26:35;100538.84;;;10.58;100.00
10510;BME280;5303;53.266;10.410;2023-12-28T12:29:01;100529.19;;;10.55;100.00
10510;BME280;5303;53.266;10.410;2023-12-28T12:31:27;100516.97;;;10.47;100.00
10510;BME280;5303;53.266;10.410;2023-12-28T12:33:53;100524.00;;;10.45;100.00
10510;BME280;5303;53.266;10.410;2023-12-28T12:36:18;100530.16;;;10.45;100.00
10510;BME280;5303;53.266;10.410;2023-12-28T12:38:44;100509.94;;;10.46;100.00
10510;BME280;5303;53.266;10.410;2023-12-28T12:41:12;100535.44;;;10.44;100.00
10510;BME280;5303;53.266;10.410;2023-12-28T12:43:38;100510.03;;;10.32;100.00
10510;BME280;5303;53.266;10.410;2023-12-28T12:46:04;100522.31;;;10.31;100.00
10510;BME280;5303;53.266;10.410;2023-12-28T12:48:29;100514.38;;;10.37;100.00
10510;BME280;5303;53.266;10.410;2023-12-28T12:50:55;100516.09;;;10.42;100.00
10510;BME280;5303;53.266;10.410;2023-12-28T12:53:21;100518.81;;;10.35;100.00